Haines City, Florida
Current Conditions -  °F | °C
As of 4:53 PM on Monday 20 Oct 2014 (Local Time) from KGIF Reporting Station
Few Clouds Few Clouds  
Wind Chill: 82°   Ceiling: Unl
Heat Index: 83°   Visibility: 10mi
Dew Point: 61°   Wind: 6mph
Humidity: 49%   Direction: 70°ENE
Pressure: 29.96"   Gusts: NA
Location:  28.11°N, 81.63°W
Report Text: KGIF 202053Z AUTO 07005KT 10SM FEW060 28/16 A2996 RMK AO2 SLP144 T02780161 56015
Loading
Personal Weather Stations






























Interactive Weather Map
Tropical Storm Tracking
New forecast layout! Learn more

10-Day Weather Forecast

Advertisements
Track Severe Weather on mobile